EJU81FH LIEO-EDDB
Flight info
| Callsign | EJU81FH |
|---|---|
| Flight time | 1h 47m |
| Altitude | 36000 |
| Route | OLBEK Q125 NEMIT DCT GINAR DCT TIPNI DCT SUMIR DCT BRENO DCT ALUTU DCT TIVDA DCT ETVIS DCT NAVEK DCT GAVLI T203 ATGUP |
| Aircraft | A320/M-SDE3FGHIRWY/LB1 |
Departure
| Time | 2026-05-05 14:55 |
|---|---|
| Airport | Olbia Costa Smeralda Airport (LIEO) |
Arrival
| Time | 2026-05-05 16:42 |
|---|---|
| Airport | Berlin Brandenburg Airport (EDDB) |
| Time | Latitude | Longitude | Altitude | Speed | Heading |
|---|---|---|---|---|---|
| 2026-05-05 14:12 | 40.90067 | 9.51580 | 34 ft | 0 kts | 86° |
| 2026-05-05 14:49 | 40.90071 | 9.51587 | 34 ft | 1 kts | 37° |
| 2026-05-05 14:49 | 40.90083 | 9.51569 | 32 ft | 5 kts | 302° |
| 2026-05-05 14:50 | 40.90093 | 9.51514 | 34 ft | 8 kts | 247° |
| 2026-05-05 14:50 | 40.90050 | 9.51481 | 34 ft | 9 kts | 169° |
| 2026-05-05 14:50 | 40.89979 | 9.51513 | 34 ft | 14 kts | 186° |
| 2026-05-05 14:50 | 40.89885 | 9.51408 | 34 ft | 22 kts | 235° |
| 2026-05-05 14:51 | 40.89788 | 9.51220 | 34 ft | 26 kts | 235° |
| 2026-05-05 14:51 | 40.89682 | 9.51018 | 34 ft | 27 kts | 234° |
| 2026-05-05 14:51 | 40.89571 | 9.50807 | 34 ft | 28 kts | 236° |
| 2026-05-05 14:51 | 40.89458 | 9.50592 | 34 ft | 27 kts | 233° |
| 2026-05-05 14:52 | 40.89380 | 9.50459 | 34 ft | 13 kts | 212° |
| 2026-05-05 14:52 | 40.89304 | 9.50452 | 34 ft | 11 kts | 152° |
| 2026-05-05 14:52 | 40.89276 | 9.50528 | 34 ft | 9 kts | 100° |
| 2026-05-05 14:52 | 40.89267 | 9.50594 | 35 ft | 6 kts | 100° |
| 2026-05-05 14:53 | 40.89278 | 9.50640 | 34 ft | 5 kts | 60° |
| 2026-05-05 14:53 | 40.89285 | 9.50653 | 34 ft | 0 kts | 55° |
| 2026-05-05 14:54 | 40.89288 | 9.50659 | 34 ft | 6 kts | 55° |
| 2026-05-05 14:54 | 40.89451 | 9.50970 | 33 ft | 78 kts | 55° |
| 2026-05-05 14:54 | 40.89880 | 9.51788 | 33 ft | 136 kts | 55° |
| 2026-05-05 14:54 | 40.90484 | 9.52944 | 380 ft | 154 kts | 56° |
| 2026-05-05 14:55 | 40.91248 | 9.54511 | 1265 ft | 158 kts | 58° |
| 2026-05-05 14:55 | 40.91673 | 9.55343 | 1478 ft | 172 kts | 57° |
| 2026-05-05 14:55 | 40.92408 | 9.56721 | 1799 ft | 195 kts | 56° |
| 2026-05-05 14:55 | 40.93243 | 9.58267 | 2054 ft | 218 kts | 57° |
| 2026-05-05 14:56 | 40.94175 | 9.59993 | 2426 ft | 240 kts | 55° |
| 2026-05-05 14:56 | 40.95159 | 9.61811 | 3242 ft | 245 kts | 55° |
| 2026-05-05 14:56 | 40.96159 | 9.63663 | 4016 ft | 252 kts | 54° |
| 2026-05-05 14:56 | 40.97186 | 9.65573 | 4822 ft | 257 kts | 54° |
| 2026-05-05 14:57 | 40.98320 | 9.67422 | 5599 ft | 261 kts | 43° |
| 2026-05-05 14:57 | 40.99789 | 9.68908 | 6183 ft | 275 kts | 27° |
| 2026-05-05 14:57 | 41.01557 | 9.70036 | 6773 ft | 286 kts | 23° |
| 2026-05-05 14:57 | 41.03378 | 9.71164 | 7548 ft | 291 kts | 23° |
| 2026-05-05 14:58 | 41.05226 | 9.72315 | 8348 ft | 296 kts | 23° |
| 2026-05-05 14:58 | 41.07104 | 9.73491 | 9149 ft | 300 kts | 23° |
| 2026-05-05 14:58 | 41.09006 | 9.74687 | 9946 ft | 305 kts | 24° |
| 2026-05-05 14:58 | 41.10960 | 9.75920 | 10418 ft | 321 kts | 24° |
| 2026-05-05 14:59 | 41.13046 | 9.77235 | 10679 ft | 342 kts | 24° |
| 2026-05-05 14:59 | 41.15229 | 9.78614 | 11257 ft | 351 kts | 24° |
| 2026-05-05 14:59 | 41.17449 | 9.80021 | 11954 ft | 356 kts | 24° |
| 2026-05-05 14:59 | 41.19696 | 9.81450 | 12669 ft | 360 kts | 24° |
| 2026-05-05 15:00 | 41.21973 | 9.82899 | 13375 ft | 365 kts | 24° |
| 2026-05-05 15:00 | 41.23496 | 9.83865 | 13828 ft | 367 kts | 24° |
| 2026-05-05 15:00 | 41.26649 | 9.85652 | 14649 ft | 370 kts | 15° |
| 2026-05-05 15:00 | 41.29111 | 9.86544 | 15245 ft | 373 kts | 13° |
| 2026-05-05 15:01 | 41.31631 | 9.87441 | 15856 ft | 377 kts | 13° |
| 2026-05-05 15:01 | 41.34173 | 9.88352 | 16470 ft | 380 kts | 13° |
| 2026-05-05 15:01 | 41.36740 | 9.89277 | 17075 ft | 384 kts | 13° |
| 2026-05-05 15:01 | 41.39337 | 9.90214 | 17657 ft | 388 kts | 13° |
| 2026-05-05 15:02 | 41.41957 | 9.91161 | 18223 ft | 393 kts | 13° |
| 2026-05-05 15:02 | 41.44607 | 9.92120 | 18743 ft | 396 kts | 13° |
| 2026-05-05 15:02 | 41.47273 | 9.93085 | 19268 ft | 399 kts | 13° |
| 2026-05-05 15:02 | 41.49960 | 9.94060 | 19793 ft | 401 kts | 12° |
| 2026-05-05 15:03 | 41.52660 | 9.95041 | 20306 ft | 404 kts | 12° |
| 2026-05-05 15:03 | 41.55384 | 9.96028 | 20826 ft | 407 kts | 12° |
| 2026-05-05 15:03 | 41.58124 | 9.97020 | 21307 ft | 410 kts | 12° |
| 2026-05-05 15:03 | 41.60886 | 9.98024 | 21782 ft | 413 kts | 12° |
| 2026-05-05 15:04 | 41.63674 | 9.99038 | 22265 ft | 416 kts | 12° |
| 2026-05-05 15:04 | 41.66477 | 10.00058 | 22742 ft | 419 kts | 12° |
| 2026-05-05 15:04 | 41.69300 | 10.01086 | 23213 ft | 422 kts | 12° |
| 2026-05-05 15:04 | 41.72141 | 10.02121 | 23654 ft | 425 kts | 12° |
| 2026-05-05 15:05 | 41.77848 | 10.04207 | 24392 ft | 431 kts | 11° |
| 2026-05-05 15:05 | 41.80754 | 10.05269 | 24738 ft | 434 kts | 11° |
| 2026-05-05 15:05 | 41.83675 | 10.06333 | 25108 ft | 437 kts | 11° |
| 2026-05-05 15:06 | 41.86611 | 10.07405 | 25467 ft | 439 kts | 11° |
| 2026-05-05 15:06 | 41.89568 | 10.08491 | 25824 ft | 442 kts | 11° |
| 2026-05-05 15:06 | 41.92539 | 10.09584 | 26182 ft | 444 kts | 11° |
| 2026-05-05 15:06 | 41.95532 | 10.10686 | 26521 ft | 447 kts | 10° |
| 2026-05-05 15:07 | 41.98537 | 10.11794 | 26884 ft | 449 kts | 10° |
| 2026-05-05 15:07 | 42.01560 | 10.12907 | 27224 ft | 452 kts | 10° |
| 2026-05-05 15:07 | 42.04600 | 10.14028 | 27574 ft | 454 kts | 10° |
| 2026-05-05 15:07 | 42.07654 | 10.15153 | 27915 ft | 456 kts | 10° |
| 2026-05-05 15:08 | 42.10727 | 10.16284 | 28253 ft | 459 kts | 10° |
| 2026-05-05 15:08 | 42.13813 | 10.17418 | 28586 ft | 461 kts | 9° |
| 2026-05-05 15:08 | 42.16920 | 10.18564 | 28917 ft | 464 kts | 9° |
| 2026-05-05 15:08 | 42.20039 | 10.19718 | 29226 ft | 466 kts | 9° |
| 2026-05-05 15:09 | 42.23173 | 10.20880 | 29543 ft | 468 kts | 9° |
| 2026-05-05 15:09 | 42.26321 | 10.22048 | 29914 ft | 469 kts | 9° |
| 2026-05-05 15:09 | 42.29469 | 10.23216 | 30200 ft | 471 kts | 9° |
| 2026-05-05 15:09 | 42.32632 | 10.24395 | 30456 ft | 473 kts | 9° |
| 2026-05-05 15:10 | 42.35812 | 10.25581 | 30690 ft | 475 kts | 9° |
| 2026-05-05 15:10 | 42.38995 | 10.26812 | 30930 ft | 478 kts | 10° |
| 2026-05-05 15:10 | 42.42179 | 10.28138 | 31174 ft | 481 kts | 11° |
| 2026-05-05 15:10 | 42.45371 | 10.29536 | 31450 ft | 482 kts | 12° |
| 2026-05-05 15:11 | 42.48554 | 10.30967 | 31786 ft | 481 kts | 12° |
| 2026-05-05 15:11 | 42.51725 | 10.32395 | 32113 ft | 481 kts | 12° |
| 2026-05-05 15:11 | 42.54905 | 10.33809 | 32438 ft | 481 kts | 11° |
| 2026-05-05 15:11 | 42.58089 | 10.35206 | 32758 ft | 481 kts | 11° |
| 2026-05-05 15:12 | 42.61231 | 10.36573 | 33051 ft | 481 kts | 10° |
| 2026-05-05 15:12 | 42.64421 | 10.37950 | 33360 ft | 481 kts | 10° |
| 2026-05-05 15:12 | 42.67648 | 10.39336 | 33693 ft | 480 kts | 10° |
| 2026-05-05 15:12 | 42.70834 | 10.40708 | 33999 ft | 480 kts | 10° |
| 2026-05-05 15:13 | 42.73975 | 10.42071 | 34287 ft | 480 kts | 10° |
| 2026-05-05 15:13 | 42.77151 | 10.43464 | 34617 ft | 479 kts | 11° |
| 2026-05-05 15:13 | 42.80324 | 10.44856 | 34895 ft | 478 kts | 11° |
| 2026-05-05 15:14 | 42.86602 | 10.47615 | 34981 ft | 470 kts | 11° |
| 2026-05-05 15:14 | 42.92805 | 10.50337 | 34974 ft | 467 kts | 10° |
| 2026-05-05 15:15 | 42.99004 | 10.53049 | 34978 ft | 467 kts | 10° |
| 2026-05-05 15:15 | 43.05205 | 10.55767 | 34985 ft | 467 kts | 10° |
| 2026-05-05 15:16 | 43.11354 | 10.58472 | 34994 ft | 467 kts | 10° |
| 2026-05-05 15:16 | 43.17530 | 10.61217 | 35004 ft | 466 kts | 11° |
| 2026-05-05 15:17 | 43.23700 | 10.63953 | 34996 ft | 466 kts | 10° |
| 2026-05-05 15:17 | 43.29870 | 10.66676 | 34992 ft | 465 kts | 10° |
| 2026-05-05 15:18 | 43.36033 | 10.69419 | 35012 ft | 466 kts | 10° |
| 2026-05-05 15:18 | 43.42194 | 10.72180 | 35005 ft | 465 kts | 10° |
| 2026-05-05 15:19 | 43.48354 | 10.74935 | 34986 ft | 465 kts | 10° |
| 2026-05-05 15:19 | 43.54516 | 10.77682 | 34996 ft | 465 kts | 10° |
| 2026-05-05 15:20 | 43.60674 | 10.80436 | 34989 ft | 465 kts | 10° |
| 2026-05-05 15:20 | 43.66753 | 10.83666 | 34989 ft | 471 kts | 16° |
| 2026-05-05 15:21 | 43.72729 | 10.87219 | 35004 ft | 470 kts | 16° |
| 2026-05-05 15:21 | 43.78754 | 10.90784 | 34995 ft | 471 kts | 16° |
| 2026-05-05 15:22 | 43.84779 | 10.94355 | 34994 ft | 471 kts | 16° |
| 2026-05-05 15:22 | 43.90806 | 10.97942 | 35004 ft | 471 kts | 17° |
| 2026-05-05 15:23 | 43.96826 | 11.01537 | 34993 ft | 471 kts | 17° |
| 2026-05-05 15:23 | 44.02845 | 11.05139 | 34997 ft | 471 kts | 17° |
| 2026-05-05 15:24 | 44.08863 | 11.08752 | 35019 ft | 471 kts | 17° |
| 2026-05-05 15:24 | 44.14898 | 11.12378 | 35009 ft | 471 kts | 17° |
| 2026-05-05 15:25 | 44.20878 | 11.15981 | 35007 ft | 472 kts | 17° |
| 2026-05-05 15:25 | 44.26905 | 11.19618 | 35000 ft | 472 kts | 16° |
| 2026-05-05 15:26 | 44.33128 | 11.21915 | 34992 ft | 456 kts | 359° |
| 2026-05-05 15:26 | 44.39410 | 11.22420 | 34991 ft | 452 kts | 355° |
| 2026-05-05 15:27 | 44.45692 | 11.22855 | 34999 ft | 452 kts | 356° |
| 2026-05-05 15:27 | 44.51971 | 11.23310 | 34994 ft | 452 kts | 356° |
| 2026-05-05 15:28 | 44.58258 | 11.23765 | 34983 ft | 452 kts | 356° |
| 2026-05-05 15:28 | 44.64546 | 11.24214 | 34994 ft | 452 kts | 356° |
| 2026-05-05 15:29 | 44.70830 | 11.24661 | 34986 ft | 453 kts | 356° |
| 2026-05-05 15:29 | 44.77131 | 11.25097 | 34962 ft | 453 kts | 356° |
| 2026-05-05 15:30 | 44.83421 | 11.25534 | 34979 ft | 453 kts | 356° |
| 2026-05-05 15:30 | 44.89719 | 11.25987 | 34988 ft | 453 kts | 357° |
| 2026-05-05 15:31 | 44.95976 | 11.26442 | 34984 ft | 453 kts | 357° |
| 2026-05-05 15:31 | 45.02270 | 11.26896 | 34994 ft | 453 kts | 357° |
| 2026-05-05 15:32 | 45.08570 | 11.27345 | 34993 ft | 453 kts | 358° |
| 2026-05-05 15:32 | 45.14871 | 11.27791 | 34991 ft | 453 kts | 358° |
| 2026-05-05 15:33 | 45.21163 | 11.28258 | 34989 ft | 453 kts | 358° |
| 2026-05-05 15:33 | 45.27463 | 11.28719 | 34993 ft | 453 kts | 358° |
| 2026-05-05 15:34 | 45.33765 | 11.29170 | 34991 ft | 453 kts | 358° |
| 2026-05-05 15:34 | 45.40060 | 11.29628 | 34990 ft | 453 kts | 358° |
| 2026-05-05 15:35 | 45.46320 | 11.30083 | 34995 ft | 453 kts | 358° |
| 2026-05-05 15:35 | 45.52628 | 11.30538 | 34993 ft | 453 kts | 358° |
| 2026-05-05 15:36 | 45.58927 | 11.31003 | 34993 ft | 453 kts | 358° |
| 2026-05-05 15:36 | 45.65227 | 11.31467 | 35004 ft | 453 kts | 359° |
| 2026-05-05 15:37 | 45.71525 | 11.31930 | 35002 ft | 453 kts | 359° |
| 2026-05-05 15:37 | 45.77790 | 11.32389 | 34997 ft | 453 kts | 359° |
| 2026-05-05 15:38 | 45.84082 | 11.32857 | 35003 ft | 453 kts | 359° |
| 2026-05-05 15:38 | 45.90367 | 11.33321 | 35007 ft | 452 kts | 359° |
| 2026-05-05 15:39 | 45.96653 | 11.33787 | 35003 ft | 452 kts | 359° |
| 2026-05-05 15:39 | 46.02935 | 11.34259 | 35007 ft | 452 kts | 359° |
| 2026-05-05 15:40 | 46.09222 | 11.34716 | 34994 ft | 452 kts | 359° |
| 2026-05-05 15:40 | 46.15502 | 11.35182 | 34989 ft | 452 kts | 359° |
| 2026-05-05 15:41 | 46.21791 | 11.35663 | 34980 ft | 452 kts | 359° |
| 2026-05-05 15:41 | 46.27011 | 11.36053 | 34973 ft | 452 kts | 358° |
| 2026-05-05 15:42 | 46.34312 | 11.36283 | 34970 ft | 450 kts | 356° |
| 2026-05-05 15:42 | 46.40583 | 11.36337 | 34981 ft | 451 kts | 356° |
| 2026-05-05 15:43 | 46.45844 | 11.36416 | 34962 ft | 452 kts | 356° |
| 2026-05-05 15:43 | 46.52089 | 11.36565 | 34964 ft | 452 kts | 357° |
| 2026-05-05 15:44 | 46.58384 | 11.36726 | 34966 ft | 452 kts | 356° |
| 2026-05-05 15:44 | 46.64685 | 11.36886 | 34956 ft | 454 kts | 357° |
| 2026-05-05 15:45 | 46.71007 | 11.37034 | 34954 ft | 455 kts | 357° |
| 2026-05-05 15:45 | 46.77337 | 11.37179 | 34947 ft | 455 kts | 356° |
| 2026-05-05 15:46 | 46.83665 | 11.37321 | 34942 ft | 455 kts | 356° |
| 2026-05-05 15:46 | 46.90008 | 11.37471 | 34935 ft | 456 kts | 356° |
| 2026-05-05 15:47 | 46.96343 | 11.37691 | 34922 ft | 458 kts | 1° |
| 2026-05-05 15:47 | 47.02596 | 11.39797 | 34899 ft | 464 kts | 15° |
| 2026-05-05 15:48 | 47.08705 | 11.42663 | 34878 ft | 464 kts | 15° |
| 2026-05-05 15:48 | 47.14866 | 11.45542 | 34818 ft | 465 kts | 15° |
| 2026-05-05 15:49 | 47.21032 | 11.48428 | 34819 ft | 465 kts | 15° |
| 2026-05-05 15:49 | 47.27196 | 11.51321 | 34828 ft | 465 kts | 14° |
| 2026-05-05 15:50 | 47.33366 | 11.54214 | 34827 ft | 465 kts | 14° |
| 2026-05-05 15:50 | 47.39533 | 11.57104 | 34816 ft | 465 kts | 14° |
| 2026-05-05 15:51 | 47.45701 | 11.60009 | 34819 ft | 465 kts | 15° |
| 2026-05-05 15:51 | 47.51867 | 11.62942 | 34792 ft | 466 kts | 15° |
| 2026-05-05 15:52 | 47.58037 | 11.65874 | 34776 ft | 465 kts | 15° |
| 2026-05-05 15:52 | 47.64213 | 11.68808 | 34774 ft | 465 kts | 15° |
| 2026-05-05 15:53 | 47.70383 | 11.71759 | 34775 ft | 465 kts | 15° |
| 2026-05-05 15:53 | 47.76503 | 11.74692 | 34773 ft | 465 kts | 15° |
| 2026-05-05 15:54 | 47.82658 | 11.77639 | 34765 ft | 465 kts | 15° |
| 2026-05-05 15:54 | 47.88810 | 11.80589 | 34779 ft | 464 kts | 15° |
| 2026-05-05 15:55 | 47.94944 | 11.83555 | 34779 ft | 463 kts | 15° |
| 2026-05-05 15:55 | 48.01069 | 11.86513 | 34777 ft | 462 kts | 15° |
| 2026-05-05 15:56 | 48.07191 | 11.89473 | 34791 ft | 462 kts | 16° |
| 2026-05-05 15:56 | 48.13298 | 11.92446 | 34789 ft | 462 kts | 16° |
| 2026-05-05 15:57 | 48.19413 | 11.95429 | 34805 ft | 461 kts | 16° |
| 2026-05-05 15:57 | 48.25485 | 11.98387 | 34808 ft | 461 kts | 16° |
| 2026-05-05 15:58 | 48.31587 | 12.01369 | 34807 ft | 461 kts | 16° |
| 2026-05-05 15:58 | 48.37696 | 12.04372 | 34802 ft | 461 kts | 16° |
| 2026-05-05 15:59 | 48.43797 | 12.07380 | 34792 ft | 461 kts | 16° |
| 2026-05-05 15:59 | 48.49897 | 12.10396 | 34784 ft | 461 kts | 17° |
| 2026-05-05 16:00 | 48.55932 | 12.13701 | 34755 ft | 461 kts | 20° |
| 2026-05-05 16:00 | 48.61902 | 12.17274 | 34749 ft | 461 kts | 20° |
| 2026-05-05 16:01 | 48.67863 | 12.20848 | 34753 ft | 461 kts | 20° |
| 2026-05-05 16:01 | 48.73840 | 12.24347 | 34750 ft | 460 kts | 20° |
| 2026-05-05 16:02 | 48.79779 | 12.27790 | 34751 ft | 460 kts | 20° |
| 2026-05-05 16:02 | 48.85745 | 12.31270 | 34749 ft | 459 kts | 20° |
| 2026-05-05 16:03 | 48.91711 | 12.34781 | 34748 ft | 459 kts | 20° |
| 2026-05-05 16:03 | 48.97657 | 12.38281 | 34745 ft | 458 kts | 20° |
| 2026-05-05 16:04 | 49.03612 | 12.41788 | 34722 ft | 458 kts | 20° |
| 2026-05-05 16:04 | 49.09544 | 12.45300 | 34741 ft | 456 kts | 20° |
| 2026-05-05 16:05 | 49.15447 | 12.48815 | 34749 ft | 455 kts | 20° |
| 2026-05-05 16:05 | 49.21294 | 12.52306 | 34740 ft | 453 kts | 20° |
| 2026-05-05 16:06 | 49.27176 | 12.55831 | 34740 ft | 453 kts | 20° |
| 2026-05-05 16:06 | 49.33038 | 12.59352 | 34730 ft | 453 kts | 20° |
| 2026-05-05 16:07 | 49.38914 | 12.62861 | 34727 ft | 453 kts | 20° |
| 2026-05-05 16:07 | 49.44776 | 12.66428 | 34719 ft | 453 kts | 22° |
| 2026-05-05 16:08 | 49.50503 | 12.70496 | 34727 ft | 454 kts | 25° |
| 2026-05-05 16:08 | 49.56159 | 12.74851 | 34714 ft | 455 kts | 26° |
| 2026-05-05 16:09 | 49.61812 | 12.79152 | 34717 ft | 456 kts | 25° |
| 2026-05-05 16:09 | 49.67787 | 12.82279 | 34721 ft | 453 kts | 7° |
| 2026-05-05 16:10 | 49.74010 | 12.83686 | 34724 ft | 453 kts | 6° |
| 2026-05-05 16:10 | 49.80244 | 12.85137 | 34730 ft | 453 kts | 6° |
| 2026-05-05 16:11 | 49.86486 | 12.86592 | 34734 ft | 454 kts | 6° |
| 2026-05-05 16:12 | 49.98979 | 12.89504 | 34781 ft | 454 kts | 6° |
| 2026-05-05 16:13 | 50.14597 | 12.93137 | 34797 ft | 454 kts | 6° |
| 2026-05-05 16:13 | 50.20848 | 12.94601 | 34828 ft | 453 kts | 6° |
| 2026-05-05 16:14 | 50.32909 | 12.99759 | 34809 ft | 456 kts | 26° |
| 2026-05-05 16:15 | 50.44213 | 13.08734 | 34783 ft | 455 kts | 25° |
| 2026-05-05 16:16 | 50.55515 | 13.17722 | 34772 ft | 455 kts | 25° |
| 2026-05-05 16:17 | 50.63972 | 13.24535 | 34537 ft | 454 kts | 25° |
| 2026-05-05 16:18 | 50.69567 | 13.29054 | 34052 ft | 449 kts | 25° |
| 2026-05-05 16:18 | 50.72341 | 13.31294 | 33631 ft | 446 kts | 25° |
| 2026-05-05 16:18 | 50.77833 | 13.35732 | 32546 ft | 441 kts | 25° |
| 2026-05-05 16:19 | 50.80635 | 13.37571 | 32349 ft | 427 kts | 12° |
| 2026-05-05 16:19 | 50.83483 | 13.38643 | 32189 ft | 414 kts | 10° |
| 2026-05-05 16:19 | 50.89070 | 13.40680 | 31230 ft | 411 kts | 10° |
| 2026-05-05 16:20 | 50.94619 | 13.42678 | 30283 ft | 407 kts | 10° |
| 2026-05-05 16:20 | 51.00124 | 13.44671 | 29311 ft | 403 kts | 10° |
| 2026-05-05 16:21 | 51.05531 | 13.46637 | 28433 ft | 395 kts | 9° |
| 2026-05-05 16:22 | 51.13428 | 13.49502 | 27140 ft | 385 kts | 9° |
| 2026-05-05 16:22 | 51.18617 | 13.51401 | 26264 ft | 380 kts | 10° |
| 2026-05-05 16:23 | 51.23753 | 13.53279 | 25365 ft | 378 kts | 10° |
| 2026-05-05 16:23 | 51.26312 | 13.54216 | 24911 ft | 377 kts | 10° |
| 2026-05-05 16:23 | 51.31422 | 13.56087 | 23951 ft | 377 kts | 10° |
| 2026-05-05 16:24 | 51.33976 | 13.57024 | 23462 ft | 377 kts | 10° |
| 2026-05-05 16:24 | 51.36539 | 13.57967 | 22922 ft | 377 kts | 11° |
| 2026-05-05 16:24 | 51.41631 | 13.59855 | 21977 ft | 374 kts | 11° |
| 2026-05-05 16:25 | 51.44160 | 13.60795 | 21508 ft | 373 kts | 11° |
| 2026-05-05 16:25 | 51.49196 | 13.62662 | 20606 ft | 370 kts | 10° |
| 2026-05-05 16:25 | 51.51712 | 13.63595 | 20132 ft | 370 kts | 10° |
| 2026-05-05 16:26 | 51.56714 | 13.65449 | 19222 ft | 368 kts | 10° |
| 2026-05-05 16:26 | 51.61660 | 13.67281 | 18329 ft | 367 kts | 10° |
| 2026-05-05 16:27 | 51.64151 | 13.68210 | 17846 ft | 366 kts | 10° |
| 2026-05-05 16:27 | 51.66623 | 13.69135 | 17394 ft | 364 kts | 11° |
| 2026-05-05 16:27 | 51.69082 | 13.70056 | 16962 ft | 361 kts | 11° |
| 2026-05-05 16:27 | 51.71510 | 13.70968 | 16588 ft | 358 kts | 11° |
| 2026-05-05 16:28 | 51.73941 | 13.71879 | 16103 ft | 358 kts | 10° |
| 2026-05-05 16:28 | 51.76366 | 13.72757 | 15735 ft | 354 kts | 6° |
| 2026-05-05 16:28 | 51.78769 | 13.72857 | 15559 ft | 340 kts | 348° |
| 2026-05-05 16:28 | 51.80993 | 13.71807 | 15332 ft | 330 kts | 330° |
| 2026-05-05 16:29 | 51.82851 | 13.69745 | 15094 ft | 321 kts | 312° |
| 2026-05-05 16:29 | 51.84358 | 13.67107 | 14842 ft | 320 kts | 308° |
| 2026-05-05 16:29 | 51.85851 | 13.64446 | 14599 ft | 319 kts | 309° |
| 2026-05-05 16:29 | 51.87342 | 13.61794 | 14363 ft | 318 kts | 309° |
| 2026-05-05 16:30 | 51.88327 | 13.60042 | 14201 ft | 317 kts | 309° |
| 2026-05-05 16:30 | 51.89813 | 13.57409 | 13970 ft | 316 kts | 309° |
| 2026-05-05 16:30 | 51.91296 | 13.54784 | 13731 ft | 315 kts | 309° |
| 2026-05-05 16:30 | 51.92775 | 13.52162 | 13476 ft | 314 kts | 309° |
| 2026-05-05 16:31 | 51.94245 | 13.49543 | 13210 ft | 313 kts | 309° |
| 2026-05-05 16:31 | 51.95705 | 13.46933 | 12951 ft | 312 kts | 309° |
| 2026-05-05 16:31 | 51.97161 | 13.44328 | 12685 ft | 311 kts | 309° |
| 2026-05-05 16:31 | 51.98612 | 13.41738 | 12425 ft | 310 kts | 309° |
| 2026-05-05 16:32 | 52.00058 | 13.39157 | 12168 ft | 308 kts | 309° |
| 2026-05-05 16:32 | 52.01496 | 13.36589 | 11917 ft | 306 kts | 309° |
| 2026-05-05 16:32 | 52.02922 | 13.34036 | 11660 ft | 305 kts | 309° |
| 2026-05-05 16:32 | 52.04343 | 13.31488 | 11427 ft | 304 kts | 310° |
| 2026-05-05 16:33 | 52.05762 | 13.28944 | 11166 ft | 304 kts | 310° |
| 2026-05-05 16:33 | 52.07174 | 13.26408 | 10771 ft | 309 kts | 309° |
| 2026-05-05 16:33 | 52.08615 | 13.23789 | 10335 ft | 314 kts | 309° |
| 2026-05-05 16:33 | 52.10079 | 13.21097 | 9851 ft | 320 kts | 309° |
| 2026-05-05 16:34 | 52.11544 | 13.18365 | 9317 ft | 320 kts | 309° |
| 2026-05-05 16:34 | 52.12999 | 13.15629 | 8806 ft | 315 kts | 309° |
| 2026-05-05 16:34 | 52.14402 | 13.12983 | 8282 ft | 302 kts | 309° |
| 2026-05-05 16:34 | 52.15745 | 13.10439 | 7779 ft | 291 kts | 309° |
| 2026-05-05 16:35 | 52.17043 | 13.07979 | 7283 ft | 281 kts | 309° |
| 2026-05-05 16:35 | 52.18301 | 13.05594 | 6786 ft | 277 kts | 309° |
| 2026-05-05 16:35 | 52.19561 | 13.03197 | 6253 ft | 281 kts | 309° |
| 2026-05-05 16:35 | 52.20853 | 13.00764 | 5632 ft | 286 kts | 315° |
| 2026-05-05 16:36 | 52.22546 | 12.99065 | 5127 ft | 288 kts | 343° |
| 2026-05-05 16:36 | 52.24473 | 12.98946 | 5008 ft | 274 kts | 16° |
| 2026-05-05 16:36 | 52.26033 | 13.00571 | 5020 ft | 270 kts | 51° |
| 2026-05-05 16:36 | 52.26743 | 13.03371 | 5028 ft | 271 kts | 86° |
| 2026-05-05 16:37 | 52.26592 | 13.06437 | 5025 ft | 272 kts | 98° |
| 2026-05-05 16:37 | 52.26320 | 13.09496 | 4854 ft | 272 kts | 98° |
| 2026-05-05 16:37 | 52.26326 | 13.12499 | 4563 ft | 259 kts | 76° |
| 2026-05-05 16:37 | 52.26894 | 13.15193 | 4230 ft | 244 kts | 67° |
| 2026-05-05 16:38 | 52.27543 | 13.17712 | 3912 ft | 241 kts | 67° |
| 2026-05-05 16:38 | 52.28169 | 13.20244 | 3585 ft | 240 kts | 68° |
| 2026-05-05 16:38 | 52.28774 | 13.22757 | 3269 ft | 233 kts | 67° |
| 2026-05-05 16:38 | 52.29355 | 13.25175 | 2960 ft | 224 kts | 68° |
| 2026-05-05 16:39 | 52.29913 | 13.27497 | 2666 ft | 216 kts | 68° |
| 2026-05-05 16:39 | 52.30450 | 13.29732 | 2382 ft | 207 kts | 66° |
| 2026-05-05 16:39 | 52.30966 | 13.31883 | 2110 ft | 200 kts | 66° |
| 2026-05-05 16:39 | 52.31466 | 13.33969 | 1863 ft | 192 kts | 66° |
| 2026-05-05 16:40 | 52.31927 | 13.35896 | 1612 ft | 175 kts | 66° |
| 2026-05-05 16:40 | 52.32350 | 13.37663 | 1382 ft | 157 kts | 68° |
| 2026-05-05 16:40 | 52.32723 | 13.39243 | 1181 ft | 142 kts | 67° |
| 2026-05-05 16:40 | 52.33073 | 13.40723 | 1009 ft | 138 kts | 65° |
| 2026-05-05 16:41 | 52.33421 | 13.42168 | 868 ft | 136 kts | 66° |
| 2026-05-05 16:41 | 52.33766 | 13.43611 | 658 ft | 136 kts | 67° |
| 2026-05-05 16:41 | 52.34113 | 13.45033 | 500 ft | 134 kts | 67° |
| 2026-05-05 16:41 | 52.34448 | 13.46470 | 278 ft | 136 kts | 67° |
| 2026-05-05 16:42 | 52.34786 | 13.47878 | 163 ft | 125 kts | 70° |
| 2026-05-05 16:42 | 52.35055 | 13.49000 | 154 ft | 83 kts | 68° |
| 2026-05-05 16:42 | 52.35202 | 13.49623 | 154 ft | 40 kts | 69° |
| 2026-05-05 16:42 | 52.35345 | 13.49958 | 154 ft | 29 kts | 41° |
| 2026-05-05 16:43 | 52.35478 | 13.50135 | 154 ft | 16 kts | 38° |
| 2026-05-05 16:43 | 52.35522 | 13.50190 | 154 ft | 0 kts | 38° |
| 2026-05-05 16:43 | 52.35528 | 13.50198 | 154 ft | 5 kts | 38° |
| 2026-05-05 16:43 | 52.35582 | 13.50277 | 154 ft | 14 kts | 51° |
| 2026-05-05 16:44 | 52.35629 | 13.50430 | 154 ft | 16 kts | 68° |
| 2026-05-05 16:44 | 52.35672 | 13.50609 | 154 ft | 18 kts | 68° |
| 2026-05-05 16:44 | 52.35716 | 13.50788 | 154 ft | 15 kts | 64° |
| 2026-05-05 16:44 | 52.35800 | 13.50808 | 155 ft | 11 kts | 341° |
| 2026-05-05 16:45 | 52.35838 | 13.50785 | 154 ft | 2 kts | 339° |
| 2026-05-05 16:45 | 52.35844 | 13.50781 | 155 ft | 0 kts | 339° |
| 2026-05-05 16:47 | 52.35847 | 13.50779 | 155 ft | 2 kts | 339° |
| 2026-05-05 16:47 | 52.35870 | 13.50768 | 155 ft | 5 kts | 348° |
| 2026-05-05 16:48 | 52.35908 | 13.50804 | 155 ft | 8 kts | 52° |
| 2026-05-05 16:48 | 52.35936 | 13.50905 | 155 ft | 11 kts | 68° |
| 2026-05-05 16:48 | 52.35991 | 13.50966 | 155 ft | 10 kts | 7° |
| 2026-05-05 16:48 | 52.36037 | 13.50973 | 155 ft | 2 kts | 4° |
| 2026-05-05 16:49 | 52.36041 | 13.50973 | 155 ft | 0 kts | 4° |